DCARONALD REAGAN WASHINGTON NTL
METARs for airports near DCA, sorted by distance:
N 0 nm 14' KDCA 220952Z 19006KT 10SM FEW150 FEW250 18/16 A2998
E 8 nm 279' KADW 220855Z 18004KT 10SM CLR 17/15 A2996
NE 9 nm 48' KCGS 221025Z 00000KT 10SM CLR 16/16 A2999
SW 10 nm 73' KDAA 220955Z 13003KT 10SM CLR 16/15 A2996
NE 19 nm 150' KFME 221029Z 00000KT 10SM CLR 13/12 A3001
N 19 nm 538' KGAI 220956Z 15004KT 10SM CLR 17/16 A3000
W 20 nm 312' KIAD 220952Z 17005KT 10SM FEW100 18/16 A2997
W 23 nm 192' KHEF 220956Z 00000KT 10SM CLR 16/15 A2998
SW 24 nm 10' KNYG 220956Z 20004KT 7SM CLR 19/17 A2998
NE 25 nm 143' KBWI 220954Z 00000KT 10SM FEW060 FEW250 16/15 A2998
NW 27 nm 389' KJYO 221035Z 19003KT 10SM CLR 17/17 A3000
SW 33 nm 211' KRMN 221035Z 15003KT 10SM CLR 17/15 A2999
SW 35 nm 336' KHWY 221035Z 00000KT 10SM CLR 16/15 A2999
NW 37 nm 308' KFDK 220950Z 00000KT 10SM CLR A2998
SW 40 nm 85' KEZF 221035Z 00000KT 10SM CLR 18/18 A2998
NE 40 nm 21' KMTN 220954Z 15003KT 10SM CLR 18/17 A3000
SW 43 nm 315' KCJR 221035Z 00000KT 10SM CLR 16/15 A3000
SE 44 nm 38' KNHK 220952Z VRB04KT 10SM SCT055 19/17 A3000
E 45 nm 72' KESN 220945Z 14003KT 10SM CLR 16/15 A3000
N 45 nm 789' KDMW 221020Z 00000KT 10SM CLR 18/16 A2999
E 50 nm 19' KCGE 221025Z 15005KT M1/4SM FG VV000 16/16 A3001
W 54 nm 726' KOKV 221035Z 00000KT 10SM CLR 15/14 A2997
NE 54 nm 44' KAPG 220955Z 00000KT 7SM MIFG FEW200 15/15 A2999
NW 55 nm 564' KMRB 220953Z 00000KT 7SM CLR 14/14 A2995
W 56 nm 703' KFRR 221035Z 00000KT 10SM CLR 16/15 A2997
SW 59 nm 464' KOMH 221035Z 22003KT 10SM CLR 15/15 A3001
S 59 nm 135' KXSA 221035Z 00000KT 10SM CLR 17/17 A3002
NW 60 nm 703' KHGR 220953Z 00000KT 10SM CLR 18/16 A2996
N 64 nm 494' KTHV 220953Z 00000KT 10SM CLR 16/14 A2997
SW 66 nm 493' KLKU 221035Z 20004KT 10SM SCT120 17/16 A3001
SW 67 nm 454' KGVE 221035Z 00000KT 10SM CLR 16/15 A3000
W 69 nm 902' KLUA 221035Z 15003KT 7SM 16/16 A3000
S 71 nm 206' KOFP 220954Z VRB04KT 10SM CLR 18/17 A3000
E 75 nm 28' KDOV 220855Z 19004KT 10SM CLR 15/14 A2998
E 78 nm 52' KSBY 220954Z 10003KT 10SM FEW003 12/12 A3002
SE 78 nm 5' KTGI 221035Z 20007KT 10SM CLR 19/19 A3002
SW 79 nm 640' KCHO 220953Z 26003KT 10SM CLR 18/15 A2998
E 79 nm 53' KGED 220954Z 23003KT 10SM CLR 13/13 A3002
S 80 nm 20' KFYJ 221035Z 00000KT 7SM CLR 17/17 A3002
N 81 nm 310' KMDT 220956Z 13006KT 10SM FEW250 17/15 A2996
S 81 nm 167' KRIC 220954Z 17004KT 10SM FEW065 18/16 A3000
N 82 nm 346' KCXY 220956Z 11004KT 10SM CLR 20/14 A2996
NE 83 nm 79' KILG 220951Z 16005KT 10SM CLR 16/15 A3000
NE 83 nm 402' KLNS 220953Z 10003KT 7SM CLR 13/13 A2999
NE 86 nm 660' KMQS 221035Z 00000KT 5SM BR CLR 16/16 A3001
S 89 nm 236' KFCI 220956Z 18003KT 10SM CLR 16/ A3001
SE 92 nm 40' KWAL 220954Z 24003KT 10SM CLR 16/15 A3003
NW 92 nm 775' KCBE 221025Z 00000KT 10SM BKN080 16/15 A3002
SE 94 nm 47' KMFV 221035Z 19003KT 10SM CLR A3003
W 94 nm 1201' KSHD 221035Z 00000KT 10SM BKN100 16/15 A3004
TAFs for airports near DCA, sorted by distance:
N 0 nm 14' KDCA KDCA 220836Z 2209/2312 19006KT P6SM FEW250
  FM221400 19009KT P6SM FEW050 SCT250
  FM230000 19007KT P6SM VCSH SCT050 BKN100
  FM230300 20005KT P6SM SCT100 BKN250
E 8 nm 279' KADW TAF KADW 220900Z 2209/2315 21006KT 9999 FEW250 QNH2996INS
  BECMG 2216/2217 19010G15KT 9999 FEW050 SCT080 QNH2989INS
  BECMG 2221/2222 18010G15KT 9999 VCTS BKN050CB QNH2988INS
  BECMG 2303/2304 20005KT 9999 NSW SCT070 WS020/23030KT 520082 QNH2989INS
  BECMG 2307/2308 22009KT 9999 -SHRA SCT060 BKN140 QNH2990INS
  BECMG 2310/2311 22008KT 9999 NSW FEW050 SCT120 QNH2990INS TX31/2219Z TN16/2209Z
SW 10 nm 73' KDAA TAF KDAA 211200Z 2112/2218 VRB03KT 8000 BR SCT006 BKN250 QNH3000INS
  BECMG 2113/2114 VRB05KT 9999 NSW SCT010 SCT250 QNH3002INS
  BECMG 2114/2115 17006KT 9999 FEW050 SCT250 QNH2996INS
  BECMG 2122/2123 VRB05KT 9999 FEW250 QNH2998INS
  BECMG 2209/2210 VRB03KT 8000 BR FEW010 QNH3000INS
  BECMG 2212/2213 19006KT 9999 NSW SKC QNH2995INS TX27/2120Z TN16/2212Z
W 20 nm 312' KIAD KIAD 220836Z 2209/2312 17004KT P6SM FEW250
  FM221400 20007KT P6SM FEW060 SCT250
  FM222300 19006KT P6SM VCTS SCT040CB BKN100
  FM230200 20004KT P6SM SCT100 BKN250
SW 24 nm 10' KNYG TAF KNYG 2209/2309 18005KT 9999 BKN060 QNH2998INS
  TEMPO 2300/2306 -RA
  FM230630 VRB05KT 9999 SCT065 QNH2989INS T30/2219Z T20/2312Z
NE 25 nm 143' KBWI KBWI 220836Z 2209/2312 21003KT P6SM FEW250
  FM221400 20008KT P6SM FEW050 SCT250
  FM230100 17006KT P6SM VCSH SCT050 BKN100
  FM230400 20004KT P6SM SCT100 BKN250
NE 40 nm 21' KMTN TAF
  AMD KMTN 220837Z 2209/2306 16003KT P6SM FEW250
  FM221500 15008KT P6SM FEW050 SCT250
  FM230100 16006KT P6SM VCSH SCT050 BKN100
  AMD NOT SKED TIL 221200
SE 44 nm 38' KNHK TAF KNHK 2207/2307 VRB06KT 9999 SKC QNH2998INS
  TEMPO 2209/2212 4800 BR BKN005
  BECMG 2216/2217 13011KT 9999 NSW FEW040 QNH2990INS AUTOMATED SENSOR METWATCH 2207 TIL 2208 TX29/2217Z TN17/2210Z FN00278
NW 55 nm 564' KMRB TAF
  AMD KMRB 220838Z 2209/2306 16004KT P6SM FEW250
  FM221400 19006KT P6SM FEW060 SCT250
  FM221900 18007KT P6SM VCSH BKN050
  FM222200 19005KT P6SM VCTS BKN050CB
  FM230100 20003KT P6SM VCSH SCT050 BKN100
  FM230400 00000KT 6SM BR SCT100
E 75 nm 28' KDOV TAF KDOV 220800Z 2208/2314 21006KT 9999 SCT030 QNH2994INS
  BECMG 2301/2302 18012KT 9999 SCT030 BKN070 QNH2990INS
  BECMG 2309/2310 22009KT 9000 -SHRA BKN030 BKN060 QNH2991INS TX27/2220Z TN16/2208Z
E 78 nm 52' KSBY KSBY 220559Z 2206/2306 13003KT P6SM SKC
  FM220900 00000KT 4SM BR BKN003
  TEMPO 2210/2212 1 1/2SM BR OVC002
  FM221200 20005KT P6SM SKC
  FM221700 20009KT P6SM FEW050
SW 79 nm 640' KCHO KCHO 220836Z 2209/2306 22003KT P6SM FEW250
  FM221400 19007KT P6SM SCT080 BKN250
  FM222200 19006KT P6SM VCTS BKN045CB BKN080
  FM230200 19004KT P6SM SCT100 BKN250
N 81 nm 310' KMDT KMDT 220915Z 2209/2306 VRB03KT P6SM SKC
  TEMPO 2210/2211 5SM BR
  FM221600 19008KT P6SM SCT050 BKN250
  FM222100 19005KT P6SM VCTS BKN050CB
S 81 nm 167' KRIC TAF
  AMD KRIC 221008Z 2210/2306 17004KT P6SM SKC
  FM221100 20006KT P6SM SKC
  FM221700 20009KT P6SM SCT060
NE 83 nm 79' KILG KILG 220529Z 2206/2306 VRB04KT P6SM SKC
  FM221600 19008KT P6SM SKC
  FM230200 21006KT P6SM SCT250
NE 83 nm 402' KLNS KLNS 220915Z 2209/2306 VRB03KT P6SM SKC
  TEMPO 2210/2211 5SM BR
  FM221600 17008KT P6SM SCT050 BKN250
  FM222100 19005KT P6SM VCTS BKN050CB

Shortcut to this page: http://wxbay.com.

Data may contain errors.